createdAt,value
2023-12-11T00:01:08.982Z,96348.34
2023-12-11T00:03:36.058Z,96338.06
2023-12-11T00:06:03.740Z,96306.25
2023-12-11T00:08:30.700Z,96327.28
2023-12-11T00:10:57.640Z,96317.84
2023-12-11T00:13:24.738Z,96323.72
2023-12-11T00:15:51.613Z,96304.47
2023-12-11T00:18:18.666Z,96300.25
2023-12-11T00:20:45.715Z,96291.47
2023-12-11T00:23:12.645Z,96309.41
2023-12-11T00:25:46.020Z,96308.75
2023-12-11T00:28:13.064Z,96302.06
2023-12-11T00:30:40.022Z,96315.28
2023-12-11T00:33:06.964Z,96315.44
2023-12-11T00:35:33.935Z,96312.38
2023-12-11T00:38:00.920Z,96310.22
2023-12-11T00:40:27.829Z,96314.78
2023-12-11T00:42:54.735Z,96307.00
2023-12-11T00:45:21.628Z,96336.16
2023-12-11T00:47:48.573Z,96336.34
2023-12-11T00:50:15.637Z,96321.47
2023-12-11T00:52:43.249Z,96303.56
2023-12-11T00:55:10.438Z,96311.84
2023-12-11T00:57:37.442Z,96309.25
2023-12-11T01:00:04.893Z,96329.16
2023-12-11T01:02:31.788Z,96307.84
2023-12-11T01:04:59.149Z,96315.63
2023-12-11T01:07:26.087Z,96299.78
2023-12-11T01:09:52.957Z,96313.13
2023-12-11T01:12:20.423Z,96290.47
2023-12-11T01:14:47.358Z,96295.81
2023-12-11T01:17:37.043Z,96316.16
2023-12-11T01:20:01.345Z,96299.06
2023-12-11T01:22:28.393Z,96325.44
2023-12-11T01:24:55.344Z,96314.38
2023-12-11T01:27:22.305Z,96328.69
2023-12-11T01:29:49.167Z,96311.38
2023-12-11T01:32:16.004Z,96327.00
2023-12-11T01:34:43.033Z,96316.09
2023-12-11T01:37:10.165Z,96321.44
2023-12-11T01:39:37.117Z,96319.78
2023-12-11T01:42:04.247Z,96320.78
2023-12-11T01:44:31.814Z,96334.81
2023-12-11T01:46:58.691Z,96325.31
2023-12-11T01:49:25.948Z,96334.28
2023-12-11T01:51:53.037Z,96309.88
2023-12-11T01:54:20.982Z,96336.53
2023-12-11T01:56:48.147Z,96341.28
2023-12-11T01:59:15.368Z,96339.16
2023-12-11T02:01:43.359Z,96337.53
2023-12-11T02:04:10.599Z,96340.31
2023-12-11T02:06:37.785Z,96342.75
2023-12-11T02:09:05.362Z,96325.66
2023-12-11T02:11:32.651Z,96339.84
2023-12-11T02:13:59.534Z,96345.09
2023-12-11T02:16:26.558Z,96338.22
2023-12-11T02:18:53.748Z,96331.91
2023-12-11T02:21:22.283Z,96347.22
2023-12-11T02:23:49.127Z,96335.16
2023-12-11T02:26:18.032Z,96342.19
2023-12-11T02:28:45.630Z,96346.22
2023-12-11T02:31:13.443Z,96350.50
2023-12-11T02:33:40.788Z,96331.91
2023-12-11T02:36:08.092Z,96340.69
2023-12-11T02:38:35.138Z,96347.53
2023-12-11T02:41:02.079Z,96349.31
2023-12-11T02:43:28.962Z,96326.88
2023-12-11T02:45:55.866Z,96328.81
2023-12-11T02:48:22.959Z,96354.66
2023-12-11T02:50:50.035Z,96342.75
2023-12-11T02:53:17.028Z,96343.59
2023-12-11T02:55:43.940Z,96329.75
2023-12-11T02:58:11.205Z,96351.06
2023-12-11T03:00:38.327Z,96338.84
2023-12-11T03:03:05.427Z,96343.41
2023-12-11T03:05:32.472Z,96356.44
2023-12-11T03:07:59.394Z,96360.66
2023-12-11T03:10:26.419Z,96347.59
2023-12-11T03:12:53.317Z,96343.28
2023-12-11T03:15:20.419Z,96337.28
2023-12-11T03:17:48.488Z,96336.22
2023-12-11T03:20:15.728Z,96337.13
2023-12-11T03:22:42.861Z,96327.50
2023-12-11T03:25:09.986Z,96333.03
2023-12-11T03:27:37.212Z,96331.69
2023-12-11T03:30:04.378Z,96323.84
2023-12-11T03:32:31.346Z,96323.13
2023-12-11T03:34:58.332Z,96318.78
2023-12-11T03:37:25.391Z,96325.81
2023-12-11T03:39:52.320Z,96324.25
2023-12-11T03:42:19.224Z,96327.22
2023-12-11T03:44:46.163Z,96330.38
2023-12-11T03:47:13.558Z,96317.22
2023-12-11T03:49:40.871Z,96316.75
2023-12-11T03:52:08.042Z,96337.28
2023-12-11T03:54:35.080Z,96338.41
2023-12-11T03:57:01.960Z,96340.34
2023-12-11T03:59:28.797Z,96350.28
2023-12-11T04:01:55.845Z,96329.91
2023-12-11T04:04:22.809Z,96336.75
2023-12-11T04:06:49.834Z,96339.66
2023-12-11T04:09:16.711Z,96333.94
2023-12-11T04:11:45.485Z,96335.13
2023-12-11T04:14:13.039Z,96331.03
2023-12-11T04:16:43.526Z,96336.56
2023-12-11T04:19:12.343Z,96318.69
2023-12-11T04:21:39.742Z,96319.06
2023-12-11T04:24:06.838Z,96333.06
2023-12-11T04:26:33.727Z,96323.28
2023-12-11T04:29:00.846Z,96337.13
2023-12-11T04:31:27.799Z,96321.63
2023-12-11T04:33:54.937Z,96332.38
2023-12-11T04:36:22.012Z,96329.94
2023-12-11T04:38:48.919Z,96340.34
2023-12-11T04:41:15.760Z,96336.28
2023-12-11T04:43:42.725Z,96335.91
2023-12-11T04:46:09.630Z,96344.19
2023-12-11T04:48:36.712Z,96345.16
2023-12-11T04:51:04.900Z,96341.22
2023-12-11T04:53:31.749Z,96344.78
2023-12-11T04:55:58.638Z,96352.72
2023-12-11T04:58:25.569Z,96355.34
2023-12-11T05:00:52.526Z,96351.09
2023-12-11T05:03:19.480Z,96336.38
2023-12-11T05:05:46.371Z,96343.41
2023-12-11T05:08:13.889Z,96350.47
2023-12-11T05:10:40.837Z,96340.69
2023-12-11T05:13:07.858Z,96326.00
2023-12-11T05:15:34.741Z,96323.59
2023-12-11T05:18:01.805Z,96325.06
2023-12-11T05:20:28.713Z,96317.78
2023-12-11T05:22:55.793Z,96302.22
2023-12-11T05:25:22.734Z,96313.84
2023-12-11T05:27:49.635Z,96316.38
2023-12-11T05:30:17.083Z,96315.44
2023-12-11T05:32:45.415Z,96321.16
2023-12-11T05:35:12.403Z,96299.00
2023-12-11T05:37:39.357Z,96237.63
2023-12-11T05:40:21.653Z,96305.00
2023-12-11T05:42:51.193Z,96302.09
2023-12-11T05:45:18.153Z,96313.31
2023-12-11T05:47:45.023Z,96335.31
2023-12-11T05:50:13.353Z,96327.81
2023-12-11T05:52:40.249Z,96318.81
2023-12-11T05:55:07.456Z,96321.44
2023-12-11T05:57:34.505Z,96319.91
2023-12-11T06:00:01.405Z,96337.25
2023-12-11T06:02:28.678Z,96336.78
2023-12-11T06:04:55.730Z,96334.81
2023-12-11T06:07:22.716Z,96341.75
2023-12-11T06:09:49.835Z,96342.94
2023-12-11T06:12:17.328Z,96336.41
2023-12-11T06:14:47.208Z,96349.91
2023-12-11T06:17:16.034Z,96327.44
2023-12-11T06:19:45.922Z,96345.34
2023-12-11T06:22:13.219Z,96358.34
2023-12-11T06:24:41.573Z,96363.09
2023-12-11T06:27:09.237Z,96347.75
2023-12-11T06:29:37.058Z,96351.13
2023-12-11T06:32:04.225Z,96328.63
2023-12-11T06:34:31.756Z,96296.69
2023-12-11T06:36:59.111Z,96334.75
2023-12-11T06:39:28.523Z,96314.66
2023-12-11T06:41:55.612Z,96315.25
2023-12-11T06:44:23.703Z,96306.88
2023-12-11T06:46:50.669Z,96310.31
2023-12-11T06:49:17.731Z,96315.13
2023-12-11T06:51:44.890Z,96306.16
2023-12-11T06:54:12.628Z,96302.84
2023-12-11T06:56:40.245Z,96313.97
2023-12-11T06:59:07.199Z,96319.56
2023-12-11T07:01:36.045Z,96308.34
2023-12-11T07:04:04.379Z,96300.66
2023-12-11T07:06:31.561Z,96323.84
2023-12-11T07:08:58.714Z,96316.03
2023-12-11T07:11:26.076Z,96311.97
2023-12-11T07:13:54.070Z,96306.25
2023-12-11T07:16:21.159Z,96325.16
2023-12-11T07:18:48.372Z,96304.13
2023-12-11T07:21:15.435Z,96321.75
2023-12-11T07:23:42.954Z,96330.06
2023-12-11T07:26:11.370Z,96323.47
2023-12-11T07:28:40.215Z,96296.13
2023-12-11T07:31:07.731Z,96316.59
2023-12-11T07:33:35.421Z,96315.09
2023-12-11T07:36:03.675Z,96313.31
2023-12-11T07:38:31.641Z,96294.72
2023-12-11T07:40:59.035Z,96301.03
2023-12-11T07:43:26.176Z,96307.19
2023-12-11T07:45:53.936Z,96307.84
2023-12-11T07:48:21.744Z,96315.50
2023-12-11T07:50:49.227Z,96300.66
2023-12-11T07:53:16.192Z,96280.13
2023-12-11T07:55:43.184Z,96285.06
2023-12-11T07:58:12.003Z,96300.84
2023-12-11T08:00:39.118Z,96268.78
2023-12-11T08:03:07.662Z,96271.31
2023-12-11T08:05:34.850Z,96267.25
2023-12-11T08:08:02.923Z,96273.41
2023-12-11T08:10:30.237Z,96268.84
2023-12-11T08:12:57.265Z,96264.19
2023-12-11T08:15:24.148Z,96266.69
2023-12-11T08:17:51.090Z,96267.69
2023-12-11T08:20:19.265Z,96253.19
2023-12-11T08:22:46.819Z,96269.97
2023-12-11T08:25:15.178Z,96266.88
2023-12-11T08:27:43.851Z,96265.06
2023-12-11T08:30:12.491Z,96263.78
2023-12-11T08:32:41.144Z,96263.75
2023-12-11T08:35:09.936Z,96258.63
2023-12-11T08:37:38.030Z,96248.69
2023-12-11T08:40:06.987Z,96255.78
2023-12-11T08:42:40.314Z,96245.09
2023-12-11T08:45:09.554Z,96256.41
2023-12-11T08:47:39.391Z,96246.56
2023-12-11T08:50:09.193Z,96221.44
2023-12-11T08:52:38.191Z,96244.84
2023-12-11T08:55:06.723Z,96241.91
2023-12-11T08:57:34.701Z,96236.69
2023-12-11T09:00:01.736Z,96235.53
2023-12-11T09:02:28.644Z,96246.50
2023-12-11T09:04:55.648Z,96220.41
2023-12-11T09:07:22.758Z,96225.31
2023-12-11T09:09:49.616Z,96210.88
2023-12-11T09:12:27.821Z,96211.00
2023-12-11T09:15:00.497Z,96215.81
2023-12-11T09:17:27.580Z,96223.97
2023-12-11T09:19:56.127Z,96228.34
2023-12-11T09:22:24.335Z,96222.72
2023-12-11T09:24:51.786Z,96215.06
2023-12-11T09:27:18.846Z,96216.91
2023-12-11T09:29:49.975Z,96219.94
2023-12-11T09:32:17.467Z,96212.84
2023-12-11T09:34:44.656Z,96230.06
2023-12-11T09:37:11.869Z,96237.91
2023-12-11T09:39:40.516Z,96226.16
2023-12-11T09:42:09.373Z,96233.41
2023-12-11T09:44:37.274Z,96224.06
2023-12-11T09:47:16.265Z,96216.66
2023-12-11T09:49:45.384Z,96221.63
2023-12-11T09:52:15.115Z,96228.69
2023-12-11T09:54:43.074Z,96235.13
2023-12-11T09:57:16.481Z,96239.38
2023-12-11T09:59:44.344Z,96241.59
2023-12-11T10:02:20.162Z,96220.69
2023-12-11T10:05:03.009Z,96233.25
2023-12-11T10:07:30.406Z,96186.94
2023-12-11T10:09:57.404Z,96199.25
2023-12-11T10:12:24.310Z,96210.81
2023-12-11T10:15:02.441Z,96211.84
2023-12-11T10:17:30.883Z,96216.81
2023-12-11T10:19:58.053Z,96203.94
2023-12-11T10:22:32.396Z,96210.91
2023-12-11T10:24:59.578Z,96192.25
2023-12-11T10:27:27.725Z,96182.97
2023-12-11T10:30:09.547Z,96194.88
2023-12-11T10:32:36.502Z,96187.53
2023-12-11T10:35:03.982Z,96185.06
2023-12-11T10:37:35.792Z,96191.69
2023-12-11T10:40:04.962Z,96183.88
2023-12-11T10:42:32.053Z,96185.34
2023-12-11T10:44:58.981Z,96172.91
2023-12-11T10:47:27.885Z,96176.88
2023-12-11T10:49:55.199Z,96181.66
2023-12-11T10:52:22.468Z,96181.81
2023-12-11T10:54:49.449Z,96173.22
2023-12-11T10:57:18.558Z,96161.03
2023-12-11T10:59:46.009Z,96169.97
2023-12-11T11:02:16.931Z,96177.53
2023-12-11T11:04:46.599Z,96186.88
2023-12-11T11:07:26.589Z,96185.22
2023-12-11T11:10:11.551Z,96178.16
2023-12-11T11:12:57.446Z,96173.97
2023-12-11T11:15:27.590Z,96174.41
2023-12-11T11:18:00.546Z,96174.91
2023-12-11T11:20:38.321Z,96172.09
2023-12-11T11:23:20.380Z,96175.25
2023-12-11T11:25:54.051Z,96163.41
2023-12-11T11:28:44.437Z,96174.34
2023-12-11T11:31:20.195Z,96174.22
2023-12-11T11:33:55.044Z,96162.31
2023-12-11T11:36:46.607Z,96167.34
2023-12-11T11:39:13.889Z,96153.56
2023-12-11T11:41:42.778Z,96162.72
2023-12-11T11:44:11.203Z,96164.56
2023-12-11T11:47:02.068Z,96150.34
2023-12-11T11:49:36.770Z,96142.06
2023-12-11T11:52:08.822Z,96143.63
2023-12-11T11:54:40.686Z,96124.81
2023-12-11T11:57:07.974Z,96134.34
2023-12-11T11:59:45.123Z,96134.72
2023-12-11T12:02:11.990Z,96146.28
2023-12-11T12:04:38.902Z,96144.66
2023-12-11T12:07:06.883Z,96127.44
2023-12-11T12:09:35.557Z,96137.78
2023-12-11T12:12:02.815Z,96132.72
2023-12-11T12:14:29.826Z,96148.50
2023-12-11T12:16:57.038Z,96147.31
2023-12-11T12:19:32.638Z,96143.03
2023-12-11T12:22:00.347Z,96151.53
2023-12-11T12:24:27.422Z,96158.59
2023-12-11T12:27:01.313Z,96155.31
2023-12-11T12:29:31.149Z,96170.84
2023-12-11T12:31:59.381Z,96170.63
2023-12-11T12:34:27.394Z,96169.84
2023-12-11T12:36:58.663Z,96162.34
2023-12-11T12:39:25.694Z,96163.59
2023-12-11T12:41:54.773Z,96155.31
2023-12-11T12:44:22.558Z,96162.84
2023-12-11T12:46:49.483Z,96154.97
2023-12-11T12:49:17.967Z,96158.63
2023-12-11T12:51:52.883Z,96155.19
2023-12-11T12:54:20.589Z,96154.00
2023-12-11T12:57:00.294Z,96148.50
2023-12-11T12:59:27.527Z,96151.16
2023-12-11T13:01:54.636Z,96153.00
2023-12-11T13:04:21.783Z,96156.59
2023-12-11T13:06:48.771Z,96153.00
2023-12-11T13:09:30.512Z,96162.09
2023-12-11T13:11:57.307Z,96161.09
2023-12-11T13:14:27.012Z,96176.72
2023-12-11T13:16:54.791Z,96166.56
2023-12-11T13:19:21.907Z,96181.19
2023-12-11T13:21:49.359Z,96178.19
2023-12-11T13:24:16.232Z,96181.63
2023-12-11T13:26:43.184Z,96185.69
2023-12-11T13:29:10.034Z,96187.34
2023-12-11T13:31:36.808Z,96180.63
2023-12-11T13:34:03.759Z,96171.94
2023-12-11T13:36:30.606Z,96178.41
2023-12-11T13:38:57.459Z,96166.88
2023-12-11T13:41:24.327Z,96179.03
2023-12-11T13:43:51.219Z,96161.63
2023-12-11T13:46:18.062Z,96190.78
2023-12-11T13:48:46.755Z,96178.44
2023-12-11T13:51:13.773Z,96194.66
2023-12-11T13:53:40.620Z,96193.81
2023-12-11T13:56:07.899Z,96187.75
2023-12-11T13:58:34.836Z,96195.44
2023-12-11T14:01:02.282Z,96194.84
2023-12-11T14:03:29.328Z,96200.94
2023-12-11T14:05:56.293Z,96206.59
2023-12-11T14:08:23.203Z,96219.16
2023-12-11T14:10:50.398Z,96210.03
2023-12-11T14:13:17.361Z,96230.47
2023-12-11T14:15:46.889Z,96233.50
2023-12-11T14:18:14.713Z,96220.56
2023-12-11T14:20:41.692Z,96223.00
2023-12-11T14:23:08.763Z,96235.53
2023-12-11T14:25:35.684Z,96236.94
2023-12-11T14:28:06.068Z,96238.72
2023-12-11T14:30:37.824Z,96233.66
2023-12-11T14:33:06.303Z,96239.13
2023-12-11T14:35:33.483Z,96234.66
2023-12-11T14:38:00.568Z,96233.84
2023-12-11T14:40:27.530Z,96234.03
2023-12-11T14:42:54.568Z,96228.56
2023-12-11T14:45:21.494Z,96232.41
2023-12-11T14:47:48.406Z,96241.28
2023-12-11T14:50:15.535Z,96260.72
2023-12-11T14:52:43.251Z,96264.13
2023-12-11T14:55:10.284Z,96249.50
2023-12-11T14:57:38.215Z,96269.97
2023-12-11T15:00:07.011Z,96265.28
2023-12-11T15:02:34.711Z,96268.91
2023-12-11T15:05:01.824Z,96291.97
2023-12-11T15:07:29.504Z,96288.09
2023-12-11T15:09:56.822Z,96282.19
2023-12-11T15:12:24.333Z,96274.47
2023-12-11T15:14:51.652Z,96292.69
2023-12-11T15:17:18.483Z,96291.84
2023-12-11T15:19:46.792Z,96293.47
2023-12-11T15:22:14.187Z,96284.13
2023-12-11T15:24:41.219Z,96289.38
2023-12-11T15:27:08.338Z,96285.91
2023-12-11T15:29:38.148Z,96286.91
2023-12-11T15:32:06.239Z,96282.25
2023-12-11T15:34:33.642Z,96283.91
2023-12-11T15:37:00.726Z,96291.38
2023-12-11T15:39:27.621Z,96278.97
2023-12-11T15:41:54.509Z,96300.22
2023-12-11T15:44:21.409Z,96303.06
2023-12-11T15:46:48.277Z,96297.34
2023-12-11T15:49:15.216Z,96299.97
2023-12-11T15:51:42.219Z,96301.97
2023-12-11T15:54:12.105Z,96306.00
2023-12-11T15:56:39.199Z,96302.50
2023-12-11T15:59:06.001Z,96295.75
2023-12-11T16:01:33.086Z,96300.97
2023-12-11T16:04:00.904Z,96291.06
2023-12-11T16:06:29.616Z,96310.03
2023-12-11T16:08:56.448Z,96315.28
2023-12-11T16:11:23.265Z,96330.34
2023-12-11T16:13:50.077Z,96331.16
2023-12-11T16:16:19.487Z,96346.00
2023-12-11T16:18:48.114Z,96354.66
2023-12-11T16:21:15.101Z,96362.19
2023-12-11T16:23:41.970Z,96333.84
2023-12-11T16:26:15.048Z,96353.97
2023-12-11T16:28:42.131Z,96340.50
2023-12-11T16:31:09.785Z,96351.31
2023-12-11T16:33:36.896Z,96358.50
2023-12-11T16:36:03.986Z,96361.97
2023-12-11T16:38:30.887Z,96364.22
2023-12-11T16:40:57.808Z,96375.72
2023-12-11T16:43:24.664Z,96378.78
2023-12-11T16:45:51.514Z,96377.91
2023-12-11T16:48:18.526Z,96395.97
2023-12-11T16:50:45.986Z,96398.69
2023-12-11T16:53:12.940Z,96411.97
2023-12-11T16:55:39.880Z,96409.88
2023-12-11T16:58:08.760Z,96407.91
2023-12-11T17:00:35.748Z,96411.53
2023-12-11T17:03:02.593Z,96394.06
2023-12-11T17:05:30.139Z,96401.13
2023-12-11T17:07:57.090Z,96422.84
2023-12-11T17:10:24.640Z,96412.16
2023-12-11T17:12:52.482Z,96413.72
2023-12-11T17:15:19.487Z,96400.97
2023-12-11T17:17:46.356Z,96395.00
2023-12-11T17:20:13.396Z,96398.78
2023-12-11T17:22:40.288Z,96402.78
2023-12-11T17:25:07.639Z,96396.44
2023-12-11T17:27:34.933Z,96382.88
2023-12-11T17:30:03.870Z,96412.22
2023-12-11T17:32:32.654Z,96407.97
2023-12-11T17:35:00.290Z,96416.72
2023-12-11T17:37:27.385Z,96405.78
2023-12-11T17:39:55.738Z,96399.81
2023-12-11T17:42:22.636Z,96406.41
2023-12-11T17:44:49.534Z,96416.06
2023-12-11T17:47:16.371Z,96417.59
2023-12-11T17:49:43.796Z,96421.72
2023-12-11T17:52:12.161Z,96425.63
2023-12-11T17:54:39.279Z,96428.53
2023-12-11T17:57:06.388Z,96437.16
2023-12-11T17:59:33.283Z,96437.34
2023-12-11T18:02:00.184Z,96458.72
2023-12-11T18:04:27.171Z,96441.53
2023-12-11T18:06:55.188Z,96467.75
2023-12-11T18:09:22.137Z,96454.22
2023-12-11T18:11:49.001Z,96474.38
2023-12-11T18:14:15.860Z,96445.81
2023-12-11T18:16:42.666Z,96462.19
2023-12-11T18:19:09.574Z,96474.31
2023-12-11T18:21:36.477Z,96465.63
2023-12-11T18:24:05.990Z,96461.22
2023-12-11T18:26:32.791Z,96413.94
2023-12-11T18:28:59.651Z,96460.66
2023-12-11T18:31:26.649Z,96456.72
2023-12-11T18:33:53.714Z,96482.00
2023-12-11T18:36:20.694Z,96493.31
2023-12-11T18:38:47.505Z,96497.38
2023-12-11T18:41:24.585Z,96502.50
2023-12-11T18:43:51.820Z,96520.34
2023-12-11T18:46:20.067Z,96503.41
2023-12-11T18:48:47.107Z,96516.53
2023-12-11T18:51:24.295Z,96522.84
2023-12-11T18:53:51.261Z,96499.06
2023-12-11T18:56:23.443Z,96513.91
2023-12-11T18:58:50.818Z,96524.19
2023-12-11T19:01:17.927Z,96509.91
2023-12-11T19:03:45.103Z,96525.72
2023-12-11T19:06:12.081Z,96524.25
2023-12-11T19:08:39.135Z,96518.59
2023-12-11T19:11:07.442Z,96529.66
2023-12-11T19:13:34.372Z,96530.84
2023-12-11T19:16:01.518Z,96533.66
2023-12-11T19:18:28.555Z,96529.94
2023-12-11T19:20:55.564Z,96534.97
2023-12-11T19:23:22.884Z,96531.06
2023-12-11T19:25:49.769Z,96548.84
2023-12-11T19:28:16.669Z,96547.41
2023-12-11T19:30:43.610Z,96538.25
2023-12-11T19:33:10.738Z,96546.28
2023-12-11T19:35:37.565Z,96550.81
2023-12-11T19:38:05.009Z,96564.38
2023-12-11T19:40:31.945Z,96564.19
2023-12-11T19:42:58.973Z,96565.75
2023-12-11T19:45:25.811Z,96569.22
2023-12-11T19:47:52.810Z,96553.91
2023-12-11T19:50:19.851Z,96565.72
2023-12-11T19:52:51.048Z,96545.81
2023-12-11T19:55:19.248Z,96561.69
2023-12-11T19:57:46.266Z,96544.66
2023-12-11T20:00:13.609Z,96560.22
2023-12-11T20:02:40.460Z,96555.38
2023-12-11T20:05:07.513Z,96564.22
2023-12-11T20:07:34.694Z,96571.31
2023-12-11T20:10:02.612Z,96583.91
2023-12-11T20:12:34.872Z,96568.84
2023-12-11T20:15:01.876Z,96581.44
2023-12-11T20:17:29.084Z,96586.66
2023-12-11T20:19:58.811Z,96595.63
2023-12-11T20:22:25.761Z,96590.38
2023-12-11T20:24:52.740Z,96586.25
2023-12-11T20:27:19.585Z,96596.06
2023-12-11T20:29:46.454Z,96582.31
2023-12-11T20:32:13.340Z,96578.88
2023-12-11T20:34:40.371Z,96596.69
2023-12-11T20:37:07.386Z,96591.63
2023-12-11T20:39:34.196Z,96591.34
2023-12-11T20:42:00.990Z,96593.78
2023-12-11T20:44:27.829Z,96598.25
2023-12-11T20:46:54.665Z,96593.94
2023-12-11T20:49:21.720Z,96599.47
2023-12-11T20:51:48.794Z,96620.91
2023-12-11T20:54:16.037Z,96604.59
2023-12-11T20:56:42.985Z,96614.56
2023-12-11T20:59:10.829Z,96620.28
2023-12-11T21:01:39.080Z,96632.03
2023-12-11T21:04:08.630Z,96629.41
2023-12-11T21:06:38.658Z,96621.56
2023-12-11T21:09:08.952Z,96637.44
2023-12-11T21:11:36.860Z,96638.22
2023-12-11T21:14:06.539Z,96627.94
2023-12-11T21:16:36.520Z,96641.16
2023-12-11T21:19:04.208Z,96632.00
2023-12-11T21:21:31.364Z,96628.38
2023-12-11T21:23:58.222Z,96616.44
2023-12-11T21:26:26.430Z,96633.75
2023-12-11T21:28:54.613Z,96622.09
2023-12-11T21:31:26.041Z,96626.16
2023-12-11T21:33:54.609Z,96632.69
2023-12-11T21:36:22.870Z,96623.38
2023-12-11T21:38:50.565Z,96632.81
2023-12-11T21:41:18.045Z,96620.25
2023-12-11T21:43:47.172Z,96616.63
2023-12-11T21:46:14.963Z,96638.19
2023-12-11T21:48:44.824Z,96622.81
2023-12-11T21:51:17.312Z,96624.63
2023-12-11T21:53:45.025Z,96646.81
2023-12-11T21:56:12.325Z,96645.03
2023-12-11T21:58:39.420Z,96641.75
2023-12-11T22:01:06.326Z,96622.47
2023-12-11T22:03:33.370Z,96648.94
2023-12-11T22:06:00.621Z,96633.28
2023-12-11T22:08:27.940Z,96651.25
2023-12-11T22:10:55.112Z,96666.75
2023-12-11T22:13:22.202Z,96665.28
2023-12-11T22:15:49.154Z,96663.66
2023-12-11T22:18:16.092Z,96672.63
2023-12-11T22:20:44.364Z,96664.97
2023-12-11T22:23:12.223Z,96673.78
2023-12-11T22:25:39.106Z,96687.81
2023-12-11T22:28:06.063Z,96682.09
2023-12-11T22:30:33.031Z,96695.69
2023-12-11T22:33:00.006Z,96707.81
2023-12-11T22:35:26.861Z,96698.47
2023-12-11T22:37:53.700Z,96712.88
2023-12-11T22:40:20.694Z,96716.63
2023-12-11T22:42:48.535Z,96715.38
2023-12-11T22:45:17.843Z,96696.75
2023-12-11T22:47:45.156Z,96698.69
2023-12-11T22:50:12.213Z,96698.88
2023-12-11T22:52:42.166Z,96711.63
2023-12-11T22:55:09.667Z,96708.88
2023-12-11T22:57:36.591Z,96700.19
2023-12-11T23:00:03.814Z,96711.00
2023-12-11T23:02:31.024Z,96711.47
2023-12-11T23:04:58.508Z,96719.47
2023-12-11T23:07:25.482Z,96709.69
2023-12-11T23:09:52.477Z,96715.41
2023-12-11T23:12:19.372Z,96721.47
2023-12-11T23:14:46.143Z,96712.50
2023-12-11T23:17:12.973Z,96714.09
2023-12-11T23:19:40.054Z,96711.50
2023-12-11T23:22:06.991Z,96711.66
2023-12-11T23:24:33.825Z,96722.97
2023-12-11T23:27:01.039Z,96714.94
2023-12-11T23:29:27.948Z,96709.72
2023-12-11T23:31:54.760Z,96716.72
2023-12-11T23:34:21.791Z,96726.06
2023-12-11T23:36:48.753Z,96714.94
2023-12-11T23:39:15.663Z,96713.44
2023-12-11T23:41:42.772Z,96730.28
2023-12-11T23:44:09.629Z,96723.78
2023-12-11T23:46:36.584Z,96721.66
2023-12-11T23:49:03.634Z,96720.69
2023-12-11T23:51:30.585Z,96720.38
2023-12-11T23:53:57.404Z,96737.50
2023-12-11T23:56:24.439Z,96745.03
2023-12-11T23:58:51.563Z,96731.63
